createdAt,value
2023-02-03T00:02:02.046Z,-0.07
2023-02-03T00:04:29.700Z,-0.11
2023-02-03T00:06:57.097Z,-0.18
2023-02-03T00:09:24.419Z,-0.22
2023-02-03T00:11:51.630Z,-0.26
2023-02-03T00:14:18.796Z,-0.30
2023-02-03T00:16:45.451Z,-0.30
2023-02-03T00:19:12.748Z,-0.35
2023-02-03T00:21:39.685Z,-0.38
2023-02-03T00:24:06.504Z,-0.45
2023-02-03T00:26:34.306Z,-0.48
2023-02-03T00:29:01.949Z,-0.51
2023-02-03T00:31:29.635Z,-0.54
2023-02-03T00:33:59.787Z,-0.61
2023-02-03T00:36:28.309Z,-0.67
2023-02-03T00:38:54.896Z,-0.68
2023-02-03T00:41:22.053Z,-0.70
2023-02-03T00:43:49.802Z,-0.71
2023-02-03T00:46:17.121Z,-0.73
2023-02-03T00:48:44.527Z,-0.70
2023-02-03T00:51:14.095Z,-0.67
2023-02-03T00:53:40.737Z,-0.66
2023-02-03T00:56:13.292Z,-0.53
2023-02-03T00:58:40.801Z,-0.56
2023-02-03T01:01:09.105Z,-0.60
2023-02-03T01:03:35.892Z,-0.62
2023-02-03T01:06:19.103Z,-0.68
2023-02-03T01:08:47.441Z,-0.68
2023-02-03T01:11:22.543Z,-0.73
2023-02-03T01:13:54.955Z,-0.82
2023-02-03T01:16:25.305Z,-0.87
2023-02-03T01:18:53.096Z,-0.86
2023-02-03T01:21:26.044Z,-0.89
2023-02-03T01:23:54.485Z,-0.96
2023-02-03T01:26:23.900Z,-0.98
2023-02-03T01:28:55.994Z,-0.98
2023-02-03T01:31:33.666Z,-0.95
2023-02-03T01:34:04.523Z,-0.95
2023-02-03T01:36:33.508Z,-0.99
2023-02-03T01:39:02.608Z,-0.96
2023-02-03T01:41:33.799Z,-0.94
2023-02-03T01:44:02.601Z,-0.88
2023-02-03T01:46:49.752Z,-0.86
2023-02-03T01:49:27.765Z,-0.91
2023-02-03T01:51:55.702Z,-0.86
2023-02-03T01:54:30.220Z,-0.81
2023-02-03T01:57:02.656Z,-0.79
2023-02-03T01:59:32.361Z,-0.81
2023-02-03T02:02:02.168Z,-0.83
2023-02-03T02:04:42.589Z,-0.76
2023-02-03T02:07:10.307Z,-0.75
2023-02-03T02:09:39.543Z,-0.79
2023-02-03T02:12:06.177Z,-0.79
2023-02-03T02:14:35.158Z,-0.70
2023-02-03T02:17:09.718Z,-0.65
2023-02-03T02:19:48.579Z,-0.77
2023-02-03T02:22:37.503Z,-0.38
2023-02-03T02:25:38.711Z,-0.56
2023-02-03T02:28:36.665Z,-0.68
2023-02-03T02:31:22.563Z,-0.75
2023-02-03T02:33:54.185Z,-0.73
2023-02-03T02:36:51.279Z,-0.93
2023-02-03T02:39:47.853Z,-1.04
2023-02-03T02:42:34.912Z,-1.11
2023-02-03T02:45:18.117Z,-1.12
2023-02-03T02:47:45.736Z,-1.14
2023-02-03T02:50:26.129Z,-1.19
2023-02-03T02:52:54.838Z,-1.22
2023-02-03T02:55:28.241Z,-1.19
2023-02-03T02:58:08.064Z,-1.24
2023-02-03T03:00:37.404Z,-1.21
2023-02-03T03:03:16.605Z,-1.26
2023-02-03T03:05:54.416Z,-1.31
2023-02-03T03:08:42.614Z,-1.36
2023-02-03T03:11:11.929Z,-1.41
2023-02-03T03:13:48.946Z,-1.42
2023-02-03T03:16:19.257Z,-1.46
2023-02-03T03:19:07.867Z,-1.50
2023-02-03T03:21:45.593Z,-1.57
2023-02-03T03:24:17.799Z,-1.54
2023-02-03T03:26:59.075Z,-1.55
2023-02-03T03:29:35.830Z,-1.64
2023-02-03T03:32:03.131Z,-1.68
2023-02-03T03:34:31.772Z,-1.72
2023-02-03T03:37:04.290Z,-1.77
2023-02-03T03:39:40.285Z,-1.60
2023-02-03T03:42:19.921Z,-1.43
2023-02-03T03:45:39.013Z,-1.40
2023-02-03T03:48:15.290Z,-1.28
2023-02-03T03:50:47.451Z,-1.29
2023-02-03T03:53:17.147Z,-1.17
2023-02-03T03:55:49.730Z,-1.19
2023-02-03T03:58:23.915Z,-1.14
2023-02-03T04:00:55.166Z,-1.17
2023-02-03T04:03:28.748Z,-1.15
2023-02-03T04:05:55.406Z,-1.21
2023-02-03T04:08:22.067Z,-1.23
2023-02-03T04:10:50.244Z,-1.24
2023-02-03T04:13:20.103Z,-1.20
2023-02-03T04:15:46.896Z,-1.24
2023-02-03T04:18:15.886Z,-1.22
2023-02-03T04:20:43.920Z,-1.20
2023-02-03T04:23:10.903Z,-1.25
2023-02-03T04:25:37.504Z,-1.32
2023-02-03T04:28:06.080Z,-1.22
2023-02-03T04:30:34.019Z,-1.09
2023-02-03T04:33:01.123Z,-1.10
2023-02-03T04:35:28.265Z,-0.91
2023-02-03T04:37:58.322Z,-0.88
2023-02-03T04:40:25.195Z,-0.78
2023-02-03T04:42:51.885Z,-0.72
2023-02-03T04:45:19.565Z,-0.74
2023-02-03T04:47:54.253Z,-0.75
2023-02-03T04:50:22.842Z,-0.64
2023-02-03T04:52:50.848Z,-0.68
2023-02-03T04:55:18.402Z,-0.62
2023-02-03T04:57:45.525Z,-0.50
2023-02-03T05:00:13.982Z,-0.56
2023-02-03T05:02:40.560Z,-0.65
2023-02-03T05:05:07.549Z,-0.58
2023-02-03T05:07:34.296Z,-0.50
2023-02-03T05:10:00.997Z,-0.52
2023-02-03T05:12:29.002Z,-0.52
2023-02-03T05:14:55.597Z,-0.44
2023-02-03T05:17:23.387Z,-0.41
2023-02-03T05:19:50.055Z,-0.37
2023-02-03T05:22:19.481Z,-0.28
2023-02-03T05:24:49.344Z,-0.39
2023-02-03T05:27:16.157Z,-0.28
2023-02-03T05:29:44.221Z,-0.23
2023-02-03T05:32:10.872Z,-0.12
2023-02-03T05:34:41.312Z,-0.22
2023-02-03T05:37:09.522Z,-0.13
2023-02-03T05:39:36.566Z,-0.26
2023-02-03T05:42:05.128Z,-0.19
2023-02-03T05:44:32.264Z,-0.33
2023-02-03T05:47:00.210Z,-0.34
2023-02-03T05:49:27.132Z,-0.36
2023-02-03T05:51:55.143Z,-0.31
2023-02-03T05:54:21.930Z,-0.34
2023-02-03T05:56:49.466Z,-0.36
2023-02-03T05:59:16.302Z,-0.35
2023-02-03T06:01:44.346Z,-0.29
2023-02-03T06:04:11.495Z,-0.30
2023-02-03T06:06:39.211Z,-0.31
2023-02-03T06:09:09.131Z,-0.37
2023-02-03T06:11:36.836Z,-0.41
2023-02-03T06:14:04.787Z,-0.45
2023-02-03T06:16:31.747Z,-0.49
2023-02-03T06:19:00.931Z,-0.52
2023-02-03T06:21:29.531Z,-0.51
2023-02-03T06:23:56.990Z,-0.52
2023-02-03T06:26:25.435Z,-0.47
2023-02-03T06:28:52.382Z,-0.43
2023-02-03T06:31:19.788Z,-0.47
2023-02-03T06:33:46.933Z,-0.10
2023-02-03T06:36:14.299Z,0.37
2023-02-03T06:38:40.865Z,0.72
2023-02-03T06:41:08.698Z,0.76
2023-02-03T06:43:35.482Z,0.90
2023-02-03T06:46:02.654Z,0.93
2023-02-03T06:48:31.260Z,0.83
2023-02-03T06:51:00.410Z,0.62
2023-02-03T06:53:27.796Z,0.45
2023-02-03T06:55:56.260Z,0.36
2023-02-03T06:58:25.202Z,0.50
2023-02-03T07:00:57.344Z,0.54
2023-02-03T07:03:26.297Z,0.60
2023-02-03T07:05:54.086Z,0.72
2023-02-03T07:08:21.563Z,0.79
2023-02-03T07:10:55.316Z,0.89
2023-02-03T07:13:22.645Z,0.89
2023-02-03T07:15:51.424Z,0.90
2023-02-03T07:18:46.359Z,1.02
2023-02-03T07:21:14.207Z,1.03
2023-02-03T07:23:43.808Z,0.99
2023-02-03T07:26:11.477Z,1.07
2023-02-03T07:28:40.372Z,1.12
2023-02-03T07:31:10.981Z,1.12
2023-02-03T07:33:40.611Z,0.95
2023-02-03T07:36:09.464Z,0.87
2023-02-03T07:38:39.474Z,0.87
2023-02-03T07:41:07.685Z,0.89
2023-02-03T07:43:37.594Z,0.97
2023-02-03T07:46:06.669Z,1.29
2023-02-03T07:48:35.424Z,1.39
2023-02-03T07:51:02.725Z,1.22
2023-02-03T07:53:32.717Z,1.21
2023-02-03T07:56:03.294Z,1.27
2023-02-03T07:58:32.660Z,1.28
2023-02-03T08:01:00.189Z,1.22
2023-02-03T08:03:26.928Z,1.25
2023-02-03T08:05:55.991Z,1.35
2023-02-03T08:08:23.420Z,1.56
2023-02-03T08:10:51.599Z,1.39
2023-02-03T08:13:20.539Z,1.35
2023-02-03T08:15:48.317Z,1.36
2023-02-03T08:18:17.057Z,1.31
2023-02-03T08:20:47.366Z,1.41
2023-02-03T08:23:16.552Z,1.38
2023-02-03T08:25:44.400Z,1.36
2023-02-03T08:28:11.040Z,1.49
2023-02-03T08:30:39.348Z,1.42
2023-02-03T08:33:05.933Z,1.31
2023-02-03T08:35:32.947Z,1.73
2023-02-03T08:38:00.356Z,1.56
2023-02-03T08:40:27.844Z,1.46
2023-02-03T08:42:55.476Z,1.30
2023-02-03T08:45:22.601Z,1.74
2023-02-03T08:47:50.056Z,1.63
2023-02-03T08:50:16.822Z,1.70
2023-02-03T08:52:43.739Z,1.77
2023-02-03T08:55:11.147Z,1.64
2023-02-03T08:57:38.272Z,1.98
2023-02-03T09:00:06.515Z,2.87
2023-02-03T09:02:34.408Z,3.30
2023-02-03T09:05:01.251Z,5.59
2023-02-03T09:07:28.306Z,6.50
2023-02-03T09:09:55.358Z,6.36
2023-02-03T09:12:22.004Z,6.20
2023-02-03T09:14:49.289Z,6.27
2023-02-03T09:17:16.190Z,6.30
2023-02-03T09:19:42.786Z,6.38
2023-02-03T09:22:09.955Z,7.17
2023-02-03T09:24:36.685Z,8.33
2023-02-03T09:27:04.420Z,9.82
2023-02-03T09:29:31.010Z,11.37
2023-02-03T09:31:58.150Z,12.73
2023-02-03T09:34:26.494Z,12.37
2023-02-03T09:36:53.686Z,13.14
2023-02-03T09:39:20.696Z,13.45
2023-02-03T09:41:56.424Z,13.28
2023-02-03T09:44:50.476Z,12.92
2023-02-03T09:47:29.612Z,12.74
2023-02-03T09:50:03.208Z,13.66
2023-02-03T09:52:39.931Z,14.58
2023-02-03T09:55:46.258Z,14.47
2023-02-03T09:58:19.520Z,15.91
2023-02-03T10:00:53.711Z,16.09
2023-02-03T10:03:28.625Z,16.54
2023-02-03T10:06:30.324Z,16.01
2023-02-03T10:09:41.486Z,15.80
2023-02-03T10:12:35.879Z,15.70
2023-02-03T10:15:34.829Z,16.33
2023-02-03T10:18:07.038Z,16.32
2023-02-03T10:20:55.657Z,16.76
2023-02-03T10:23:36.307Z,17.20
2023-02-03T10:26:08.538Z,18.38
2023-02-03T10:28:55.643Z,18.92
2023-02-03T10:31:28.676Z,19.06
2023-02-03T10:34:10.403Z,20.15
2023-02-03T10:36:53.154Z,21.04
2023-02-03T10:39:30.692Z,21.04
2023-02-03T10:41:58.113Z,21.73
2023-02-03T10:44:45.798Z,22.35
2023-02-03T10:47:34.856Z,21.66
2023-02-03T10:50:16.638Z,22.08
2023-02-03T10:52:43.811Z,20.85
2023-02-03T10:55:19.850Z,20.55
2023-02-03T10:57:46.862Z,19.30
2023-02-03T11:00:16.927Z,19.12
2023-02-03T11:02:44.442Z,18.08
2023-02-03T11:05:21.441Z,18.63
2023-02-03T11:07:48.632Z,17.45
2023-02-03T11:10:36.290Z,17.64
2023-02-03T11:13:18.405Z,15.28
2023-02-03T11:15:55.540Z,15.01
2023-02-03T11:18:39.904Z,13.82
2023-02-03T11:21:10.553Z,14.15
2023-02-03T11:23:44.013Z,12.48
2023-02-03T11:26:18.822Z,13.94
2023-02-03T11:28:48.155Z,15.12
2023-02-03T11:31:22.523Z,14.41
2023-02-03T11:33:55.553Z,15.47
2023-02-03T11:36:22.288Z,15.58
2023-02-03T11:38:48.947Z,15.29
2023-02-03T11:41:18.134Z,15.06
2023-02-03T11:43:46.083Z,14.46
2023-02-03T11:46:15.286Z,14.85
2023-02-03T11:49:08.545Z,14.50
2023-02-03T11:51:56.120Z,15.06
2023-02-03T11:55:08.442Z,14.93
2023-02-03T11:58:01.764Z,13.80
2023-02-03T12:00:47.431Z,12.26
2023-02-03T12:03:32.523Z,11.79
2023-02-03T12:06:15.321Z,11.25
2023-02-03T12:09:03.695Z,11.37
2023-02-03T12:11:54.113Z,11.25
2023-02-03T12:14:52.713Z,10.46
2023-02-03T12:17:47.436Z,9.98
2023-02-03T12:20:30.537Z,10.38
2023-02-03T12:23:10.273Z,10.99
2023-02-03T12:25:52.639Z,11.39
2023-02-03T12:28:35.401Z,10.99
2023-02-03T12:31:31.339Z,11.20
2023-02-03T12:34:23.739Z,10.69
2023-02-03T12:37:21.836Z,11.22
2023-02-03T12:39:53.711Z,11.28
2023-02-03T12:42:30.523Z,11.90
2023-02-03T12:45:11.656Z,12.43
2023-02-03T12:48:02.795Z,12.48
2023-02-03T12:50:42.121Z,11.81
2023-02-03T12:53:29.257Z,12.59
2023-02-03T12:56:36.711Z,13.14
2023-02-03T12:59:16.180Z,12.14
2023-02-03T13:01:52.956Z,12.51
2023-02-03T13:04:39.063Z,11.73
2023-02-03T13:07:27.270Z,12.59
2023-02-03T13:10:07.919Z,13.04
2023-02-03T13:12:44.493Z,12.35
2023-02-03T13:15:21.940Z,11.90
2023-02-03T13:17:53.865Z,11.03
2023-02-03T13:20:27.896Z,11.68
2023-02-03T13:22:57.245Z,11.58
2023-02-03T13:25:38.865Z,11.76
2023-02-03T13:28:21.018Z,11.51
2023-02-03T13:31:21.977Z,11.39
2023-02-03T13:34:13.421Z,11.30
2023-02-03T13:37:01.402Z,11.86
2023-02-03T13:39:47.912Z,11.92
2023-02-03T13:42:32.876Z,11.64
2023-02-03T13:45:42.802Z,10.94
2023-02-03T13:48:23.573Z,10.02
2023-02-03T13:51:03.498Z,9.47
2023-02-03T13:53:40.540Z,9.02
2023-02-03T13:56:31.589Z,8.68
2023-02-03T13:59:29.441Z,8.28
2023-02-03T14:02:21.636Z,8.19
2023-02-03T14:04:48.586Z,8.00
2023-02-03T14:07:38.331Z,7.73
2023-02-03T14:10:16.043Z,7.55
2023-02-03T14:12:53.293Z,7.63
2023-02-03T14:15:39.600Z,7.55
2023-02-03T14:18:33.236Z,7.54
2023-02-03T14:21:22.956Z,7.31
2023-02-03T14:23:56.266Z,6.96
2023-02-03T14:26:32.476Z,6.94
2023-02-03T14:29:03.036Z,7.15
2023-02-03T14:31:31.355Z,7.35
2023-02-03T14:34:13.363Z,7.74
2023-02-03T14:36:53.318Z,7.97
2023-02-03T14:39:29.032Z,8.05
2023-02-03T14:41:59.417Z,8.10
2023-02-03T14:44:58.516Z,8.06
2023-02-03T14:47:49.459Z,8.09
2023-02-03T14:50:23.136Z,8.09
2023-02-03T14:53:14.140Z,8.05
2023-02-03T14:56:24.712Z,7.92
2023-02-03T14:58:57.720Z,7.81
2023-02-03T15:01:24.659Z,7.74
2023-02-03T15:04:13.548Z,7.71
2023-02-03T15:06:44.304Z,7.59
2023-02-03T15:09:31.298Z,7.49
2023-02-03T15:11:58.116Z,7.39
2023-02-03T15:14:27.272Z,7.37
2023-02-03T15:17:11.665Z,7.29
2023-02-03T15:19:41.622Z,7.32
2023-02-03T15:22:37.827Z,7.32
2023-02-03T15:25:17.075Z,7.45
2023-02-03T15:27:44.403Z,7.18
2023-02-03T15:30:23.691Z,6.94
2023-02-03T15:33:22.627Z,6.78
2023-02-03T15:36:02.813Z,6.62
2023-02-03T15:38:35.927Z,6.52
2023-02-03T15:41:06.970Z,6.60
2023-02-03T15:43:39.523Z,6.45
2023-02-03T15:46:12.799Z,6.28
2023-02-03T15:48:47.085Z,6.23
2023-02-03T15:51:22.295Z,6.16
2023-02-03T15:53:54.031Z,6.00
2023-02-03T15:56:31.180Z,6.01
2023-02-03T15:58:58.840Z,5.96
2023-02-03T16:01:28.148Z,5.89
2023-02-03T16:03:57.203Z,5.88
2023-02-03T16:06:27.758Z,5.87
2023-02-03T16:08:56.836Z,5.80
2023-02-03T16:11:40.291Z,5.72
2023-02-03T16:14:36.345Z,5.60
2023-02-03T16:17:06.015Z,5.58
2023-02-03T16:19:38.038Z,5.69
2023-02-03T16:22:05.651Z,5.78
2023-02-03T16:24:37.960Z,6.11
2023-02-03T16:27:31.384Z,6.40
2023-02-03T16:30:26.377Z,6.65
2023-02-03T16:33:30.542Z,7.01
2023-02-03T16:36:20.177Z,6.99
2023-02-03T16:39:07.362Z,7.08
2023-02-03T16:41:53.142Z,6.93
2023-02-03T16:44:38.371Z,6.82
2023-02-03T16:47:45.221Z,6.80
2023-02-03T16:50:38.804Z,6.76
2023-02-03T16:53:14.283Z,6.83
2023-02-03T16:55:42.860Z,6.75
2023-02-03T16:58:12.234Z,6.70
2023-02-03T17:00:44.343Z,6.80
2023-02-03T17:03:17.716Z,6.70
2023-02-03T17:05:46.592Z,6.75
2023-02-03T17:08:15.203Z,6.66
2023-02-03T17:10:43.728Z,6.69
2023-02-03T17:13:11.658Z,6.57
2023-02-03T17:15:43.987Z,6.59
2023-02-03T17:18:12.465Z,6.62
2023-02-03T17:20:40.520Z,6.80
2023-02-03T17:23:08.328Z,6.76
2023-02-03T17:25:37.310Z,6.95
2023-02-03T17:28:08.703Z,6.93
2023-02-03T17:30:36.511Z,6.88
2023-02-03T17:33:12.406Z,6.82
2023-02-03T17:35:44.996Z,6.72
2023-02-03T17:38:17.599Z,6.76
2023-02-03T17:54:37.819Z,6.18
2023-02-03T17:57:05.132Z,6.15
2023-02-03T17:59:35.375Z,6.22
2023-02-03T18:02:02.813Z,6.47
2023-02-03T18:04:29.985Z,6.40
2023-02-03T18:06:57.648Z,6.26
2023-02-03T18:09:24.259Z,6.25
2023-02-03T18:11:52.190Z,6.08
2023-02-03T18:14:18.806Z,6.06
2023-02-03T18:16:46.320Z,6.00
2023-02-03T18:19:15.672Z,5.98
2023-02-03T18:21:43.485Z,5.90
2023-02-03T18:24:13.151Z,5.85
2023-02-03T18:26:48.934Z,5.86
2023-02-03T18:29:16.780Z,5.92
2023-02-03T18:31:44.278Z,5.98
2023-02-03T18:34:12.683Z,5.94
2023-02-03T18:39:08.185Z,6.35
2023-02-03T18:41:36.571Z,6.24
2023-02-03T18:44:03.152Z,6.10
2023-02-03T18:46:32.833Z,6.07
2023-02-03T18:49:00.312Z,6.40
2023-02-03T18:51:28.212Z,6.32
2023-02-03T18:53:59.432Z,6.41
2023-02-03T18:56:35.814Z,6.62
2023-02-03T18:59:09.282Z,6.74
2023-02-03T19:01:38.803Z,6.65
2023-02-03T19:04:08.297Z,6.58
2023-02-03T19:06:36.879Z,6.72
2023-02-03T19:09:06.719Z,6.76
2023-02-03T19:11:33.939Z,6.86
2023-02-03T19:14:01.463Z,7.00
2023-02-03T19:16:28.320Z,7.08
2023-02-03T19:18:55.510Z,7.02
2023-02-03T19:21:22.700Z,7.14
2023-02-03T19:23:49.328Z,7.13
2023-02-03T19:26:17.157Z,7.13
2023-02-03T19:28:43.757Z,7.20
2023-02-03T19:31:18.283Z,7.24
2023-02-03T19:33:45.387Z,7.17
2023-02-03T19:36:13.022Z,7.12
2023-02-03T19:38:39.649Z,7.18
2023-02-03T19:41:07.685Z,7.10
2023-02-03T19:43:34.342Z,6.93
2023-02-03T19:46:02.707Z,6.95
2023-02-03T19:48:29.354Z,6.69
2023-02-03T19:50:57.056Z,6.54
2023-02-03T19:53:24.382Z,6.45
2023-02-03T19:55:52.177Z,6.34
2023-02-03T19:58:19.124Z,6.30
2023-02-03T20:00:46.166Z,6.45
2023-02-03T20:03:13.468Z,6.52
2023-02-03T20:05:40.529Z,6.46
2023-02-03T20:08:07.767Z,6.28
2023-02-03T20:10:34.419Z,6.38
2023-02-03T20:13:01.830Z,6.42
2023-02-03T20:15:28.685Z,6.37
2023-02-03T20:17:55.823Z,6.21
2023-02-03T20:20:23.678Z,6.21
2023-02-03T20:22:50.841Z,6.24
2023-02-03T20:25:19.704Z,6.23
2023-02-03T20:27:47.966Z,6.27
2023-02-03T20:30:14.668Z,6.30
2023-02-03T20:32:42.627Z,6.42
2023-02-03T20:35:10.284Z,6.50
2023-02-03T20:37:37.854Z,6.83
2023-02-03T20:40:14.795Z,6.77
2023-02-03T20:42:42.615Z,6.66
2023-02-03T20:45:20.491Z,6.59
2023-02-03T20:47:48.728Z,6.61
2023-02-03T20:50:18.725Z,6.63
2023-02-03T20:52:46.557Z,6.60
2023-02-03T20:55:17.810Z,6.68
2023-02-03T20:57:45.985Z,6.71
2023-02-03T21:00:26.187Z,6.53
2023-02-03T21:03:12.285Z,6.48
2023-02-03T21:05:42.012Z,6.40
2023-02-03T21:08:18.341Z,6.63
2023-02-03T21:10:47.977Z,6.56
2023-02-03T21:13:22.568Z,6.51
2023-02-03T21:15:51.593Z,6.45
2023-02-03T21:18:50.532Z,6.47
2023-02-03T21:21:24.737Z,6.40
2023-02-03T21:23:53.489Z,6.57
2023-02-03T21:26:24.909Z,6.37
2023-02-03T21:28:58.501Z,6.27
2023-02-03T21:31:29.010Z,6.25
2023-02-03T21:34:00.319Z,6.22
2023-02-03T21:36:32.421Z,6.14
2023-02-03T21:39:00.126Z,6.14
2023-02-03T21:41:33.773Z,6.29
2023-02-03T21:44:01.339Z,6.30
2023-02-03T21:46:33.027Z,6.29
2023-02-03T21:49:02.062Z,6.32
2023-02-03T21:51:38.685Z,6.26
2023-02-03T21:54:23.788Z,6.21
2023-02-03T21:56:51.219Z,6.23
2023-02-03T21:59:22.696Z,6.22
2023-02-03T22:01:49.894Z,6.32
2023-02-03T22:04:17.081Z,6.28
2023-02-03T22:06:49.351Z,6.32
2023-02-03T22:09:24.804Z,6.11
2023-02-03T22:11:52.778Z,6.12
2023-02-03T22:14:21.546Z,6.21
2023-02-03T22:16:49.024Z,6.09
2023-02-03T22:19:18.119Z,6.05
2023-02-03T22:21:44.929Z,6.20
2023-02-03T22:24:11.943Z,6.26
2023-02-03T22:26:38.923Z,6.23
2023-02-03T22:29:05.834Z,6.33
2023-02-03T22:31:34.087Z,6.24
2023-02-03T22:34:01.346Z,6.26
2023-02-03T22:36:28.944Z,6.36
2023-02-03T22:38:55.527Z,6.22
2023-02-03T22:41:23.346Z,6.06
2023-02-03T22:43:50.093Z,6.10
2023-02-03T22:46:17.351Z,6.00
2023-02-03T22:48:44.131Z,5.87
2023-02-03T22:51:10.715Z,5.90
2023-02-03T22:53:39.451Z,6.05
2023-02-03T22:56:06.604Z,5.80
2023-02-03T22:58:33.926Z,5.77
2023-02-03T23:01:00.555Z,5.90
2023-02-03T23:03:32.766Z,5.83
2023-02-03T23:05:59.783Z,5.79
2023-02-03T23:08:26.347Z,5.88
2023-02-03T23:10:53.880Z,5.96
2023-02-03T23:13:20.445Z,5.75
2023-02-03T23:15:47.870Z,5.77
2023-02-03T23:18:14.512Z,5.72
2023-02-03T23:20:41.475Z,5.59
2023-02-03T23:23:10.446Z,5.61
2023-02-03T23:25:37.952Z,5.54
2023-02-03T23:28:04.765Z,5.35
2023-02-03T23:30:32.228Z,5.27
2023-02-03T23:32:59.528Z,5.24
2023-02-03T23:35:44.480Z,5.35
2023-02-03T23:38:11.762Z,5.24
2023-02-03T23:40:38.599Z,5.42
2023-02-03T23:43:05.158Z,5.38
2023-02-03T23:45:32.202Z,5.29
2023-02-03T23:47:59.538Z,5.20
2023-02-03T23:50:26.685Z,5.25
2023-02-03T23:52:54.287Z,5.02
2023-02-03T23:55:22.230Z,4.95
2023-02-03T23:57:49.647Z,4.87
